sensor_id;sensor_type;location;lat;lon;timestamp;P1;durP1;ratioP1;P2;durP2;ratioP2
72209;SDS011;60113;48.762;12.302;2022-10-16T00:02:16;7.40;;;3.40;;
72209;SDS011;60113;48.762;12.302;2022-10-16T00:04:42;13.25;;;3.47;;
72209;SDS011;60113;48.762;12.302;2022-10-16T00:07:08;11.50;;;3.65;;
72209;SDS011;60113;48.762;12.302;2022-10-16T00:09:34;6.85;;;2.80;;
72209;SDS011;60113;48.762;12.302;2022-10-16T00:12:00;9.05;;;3.03;;
72209;SDS011;60113;48.762;12.302;2022-10-16T00:14:25;11.50;;;3.13;;
72209;SDS011;60113;48.762;12.302;2022-10-16T00:16:52;10.32;;;3.90;;
72209;SDS011;60113;48.762;12.302;2022-10-16T00:19:19;9.90;;;3.47;;
72209;SDS011;60113;48.762;12.302;2022-10-16T00:21:44;9.05;;;2.95;;
72209;SDS011;60113;48.762;12.302;2022-10-16T00:24:10;8.98;;;2.90;;
72209;SDS011;60113;48.762;12.302;2022-10-16T00:26:37;10.18;;;3.22;;
72209;SDS011;60113;48.762;12.302;2022-10-16T00:29:03;9.13;;;2.92;;
72209;SDS011;60113;48.762;12.302;2022-10-16T00:31:30;5.47;;;2.70;;
72209;SDS011;60113;48.762;12.302;2022-10-16T00:33:56;4.95;;;3.10;;
72209;SDS011;60113;48.762;12.302;2022-10-16T00:36:22;7.90;;;3.55;;
72209;SDS011;60113;48.762;12.302;2022-10-16T00:38:52;10.52;;;4.60;;
72209;SDS011;60113;48.762;12.302;2022-10-16T00:41:19;11.98;;;3.28;;
72209;SDS011;60113;48.762;12.302;2022-10-16T00:43:50;13.57;;;4.30;;
72209;SDS011;60113;48.762;12.302;2022-10-16T00:46:27;4.28;;;2.78;;
72209;SDS011;60113;48.762;12.302;2022-10-16T00:49:08;5.03;;;3.20;;
72209;SDS011;60113;48.762;12.302;2022-10-16T00:51:40;5.35;;;3.05;;
72209;SDS011;60113;48.762;12.302;2022-10-16T00:54:13;13.40;;;3.28;;
72209;SDS011;60113;48.762;12.302;2022-10-16T00:59:10;7.63;;;2.35;;
72209;SDS011;60113;48.762;12.302;2022-10-16T01:01:43;8.07;;;2.45;;
72209;SDS011;60113;48.762;12.302;2022-10-16T01:04:08;8.48;;;2.60;;
72209;SDS011;60113;48.762;12.302;2022-10-16T01:09:13;7.80;;;2.83;;
72209;SDS011;60113;48.762;12.302;2022-10-16T01:11:58;10.93;;;2.78;;
72209;SDS011;60113;48.762;12.302;2022-10-16T01:14:35;11.27;;;3.03;;
72209;SDS011;60113;48.762;12.302;2022-10-16T01:17:07;8.88;;;2.80;;
72209;SDS011;60113;48.762;12.302;2022-10-16T01:25:25;8.73;;;3.10;;
72209;SDS011;60113;48.762;12.302;2022-10-16T01:28:13;13.63;;;2.85;;
72209;SDS011;60113;48.762;12.302;2022-10-16T01:30:42;6.10;;;2.50;;
72209;SDS011;60113;48.762;12.302;2022-10-16T01:33:14;4.45;;;2.95;;
72209;SDS011;60113;48.762;12.302;2022-10-16T01:35:49;7.53;;;3.30;;
72209;SDS011;60113;48.762;12.302;2022-10-16T01:38:20;7.95;;;3.28;;
72209;SDS011;60113;48.762;12.302;2022-10-16T01:40:52;9.05;;;2.92;;
72209;SDS011;60113;48.762;12.302;2022-10-16T01:43:40;6.40;;;2.50;;
72209;SDS011;60113;48.762;12.302;2022-10-16T01:46:11;9.30;;;2.95;;
72209;SDS011;60113;48.762;12.302;2022-10-16T01:48:40;8.07;;;2.80;;
72209;SDS011;60113;48.762;12.302;2022-10-16T01:51:07;10.77;;;3.08;;
72209;SDS011;60113;48.762;12.302;2022-10-16T01:53:36;5.85;;;2.92;;
72209;SDS011;60113;48.762;12.302;2022-10-16T01:56:05;6.10;;;2.63;;
72209;SDS011;60113;48.762;12.302;2022-10-16T01:58:35;9.18;;;3.22;;
72209;SDS011;60113;48.762;12.302;2022-10-16T02:01:06;11.10;;;2.95;;
72209;SDS011;60113;48.762;12.302;2022-10-16T02:03:34;8.65;;;3.30;;
72209;SDS011;60113;48.762;12.302;2022-10-16T02:06:02;12.85;;;3.45;;
72209;SDS011;60113;48.762;12.302;2022-10-16T02:08:28;10.43;;;3.55;;
72209;SDS011;60113;48.762;12.302;2022-10-16T02:10:56;10.82;;;3.50;;
72209;SDS011;60113;48.762;12.302;2022-10-16T02:13:27;9.18;;;3.47;;
72209;SDS011;60113;48.762;12.302;2022-10-16T02:15:58;9.68;;;3.95;;
72209;SDS011;60113;48.762;12.302;2022-10-16T02:18:24;18.60;;;4.40;;
72209;SDS011;60113;48.762;12.302;2022-10-16T02:26:52;15.13;;;4.25;;
72209;SDS011;60113;48.762;12.302;2022-10-16T02:29:21;11.13;;;3.00;;
72209;SDS011;60113;48.762;12.302;2022-10-16T02:31:50;15.43;;;3.80;;
72209;SDS011;60113;48.762;12.302;2022-10-16T02:34:28;11.88;;;3.53;;
72209;SDS011;60113;48.762;12.302;2022-10-16T02:36:58;10.00;;;3.70;;
72209;SDS011;60113;48.762;12.302;2022-10-16T02:39:26;10.93;;;4.25;;
72209;SDS011;60113;48.762;12.302;2022-10-16T02:41:53;11.38;;;4.50;;
72209;SDS011;60113;48.762;12.302;2022-10-16T02:44:19;9.73;;;4.30;;
72209;SDS011;60113;48.762;12.302;2022-10-16T02:46:45;13.35;;;5.25;;
72209;SDS011;60113;48.762;12.302;2022-10-16T02:49:11;12.68;;;5.10;;
72209;SDS011;60113;48.762;12.302;2022-10-16T02:51:36;11.13;;;4.68;;
72209;SDS011;60113;48.762;12.302;2022-10-16T02:54:02;7.45;;;4.65;;
72209;SDS011;60113;48.762;12.302;2022-10-16T02:56:28;16.60;;;4.63;;
72209;SDS011;60113;48.762;12.302;2022-10-16T02:58:55;11.88;;;4.55;;
72209;SDS011;60113;48.762;12.302;2022-10-16T03:01:20;15.73;;;5.57;;
72209;SDS011;60113;48.762;12.302;2022-10-16T03:03:46;12.45;;;6.07;;
72209;SDS011;60113;48.762;12.302;2022-10-16T03:06:11;16.63;;;6.25;;
72209;SDS011;60113;48.762;12.302;2022-10-16T03:08:37;17.90;;;5.70;;
72209;SDS011;60113;48.762;12.302;2022-10-16T03:11:02;15.80;;;5.20;;
72209;SDS011;60113;48.762;12.302;2022-10-16T03:13:28;20.33;;;4.53;;
72209;SDS011;60113;48.762;12.302;2022-10-16T03:15:53;15.23;;;4.78;;
72209;SDS011;60113;48.762;12.302;2022-10-16T03:18:19;14.45;;;4.22;;
72209;SDS011;60113;48.762;12.302;2022-10-16T03:20:45;17.05;;;5.68;;
72209;SDS011;60113;48.762;12.302;2022-10-16T03:23:11;12.52;;;5.18;;
72209;SDS011;60113;48.762;12.302;2022-10-16T03:25:36;13.35;;;4.70;;
72209;SDS011;60113;48.762;12.302;2022-10-16T03:28:02;14.65;;;4.20;;
72209;SDS011;60113;48.762;12.302;2022-10-16T03:30:28;10.80;;;4.10;;
72209;SDS011;60113;48.762;12.302;2022-10-16T03:32:54;12.80;;;4.05;;
72209;SDS011;60113;48.762;12.302;2022-10-16T03:35:23;13.27;;;4.30;;
72209;SDS011;60113;48.762;12.302;2022-10-16T03:37:49;17.48;;;4.20;;
72209;SDS011;60113;48.762;12.302;2022-10-16T03:40:16;11.18;;;4.95;;
72209;SDS011;60113;48.762;12.302;2022-10-16T03:42:42;19.80;;;5.22;;
72209;SDS011;60113;48.762;12.302;2022-10-16T03:45:09;15.82;;;5.15;;
72209;SDS011;60113;48.762;12.302;2022-10-16T03:47:37;13.90;;;4.38;;
72209;SDS011;60113;48.762;12.302;2022-10-16T03:50:03;12.02;;;4.53;;
72209;SDS011;60113;48.762;12.302;2022-10-16T03:52:29;14.27;;;4.80;;
72209;SDS011;60113;48.762;12.302;2022-10-16T03:54:55;16.77;;;4.78;;
72209;SDS011;60113;48.762;12.302;2022-10-16T03:57:21;15.10;;;5.03;;
72209;SDS011;60113;48.762;12.302;2022-10-16T03:59:46;21.45;;;5.18;;
72209;SDS011;60113;48.762;12.302;2022-10-16T04:02:12;8.65;;;4.82;;
72209;SDS011;60113;48.762;12.302;2022-10-16T04:04:39;11.13;;;3.95;;
72209;SDS011;60113;48.762;12.302;2022-10-16T04:07:05;6.50;;;4.25;;
72209;SDS011;60113;48.762;12.302;2022-10-16T04:09:31;11.35;;;5.50;;
72209;SDS011;60113;48.762;12.302;2022-10-16T04:11:56;13.02;;;4.00;;
72209;SDS011;60113;48.762;12.302;2022-10-16T04:14:22;7.35;;;3.53;;
72209;SDS011;60113;48.762;12.302;2022-10-16T04:16:47;10.30;;;4.13;;
72209;SDS011;60113;48.762;12.302;2022-10-16T04:19:13;9.57;;;5.10;;
72209;SDS011;60113;48.762;12.302;2022-10-16T04:21:38;13.57;;;5.35;;
72209;SDS011;60113;48.762;12.302;2022-10-16T04:24:04;11.00;;;6.05;;
72209;SDS011;60113;48.762;12.302;2022-10-16T04:26:30;15.40;;;6.57;;
72209;SDS011;60113;48.762;12.302;2022-10-16T04:28:55;20.98;;;7.95;;
72209;SDS011;60113;48.762;12.302;2022-10-16T04:31:21;23.17;;;8.88;;
72209;SDS011;60113;48.762;12.302;2022-10-16T04:33:47;27.65;;;9.23;;
72209;SDS011;60113;48.762;12.302;2022-10-16T04:36:13;24.45;;;9.80;;
72209;SDS011;60113;48.762;12.302;2022-10-16T04:38:38;17.65;;;10.43;;
72209;SDS011;60113;48.762;12.302;2022-10-16T04:41:07;14.68;;;9.02;;
72209;SDS011;60113;48.762;12.302;2022-10-16T04:43:33;19.50;;;10.13;;
72209;SDS011;60113;48.762;12.302;2022-10-16T04:45:59;18.83;;;9.40;;
72209;SDS011;60113;48.762;12.302;2022-10-16T04:48:26;15.50;;;9.07;;
72209;SDS011;60113;48.762;12.302;2022-10-16T04:50:51;16.65;;;9.55;;
72209;SDS011;60113;48.762;12.302;2022-10-16T04:53:17;15.45;;;9.25;;
72209;SDS011;60113;48.762;12.302;2022-10-16T04:55:43;20.02;;;9.57;;
72209;SDS011;60113;48.762;12.302;2022-10-16T04:58:08;15.10;;;9.25;;
72209;SDS011;60113;48.762;12.302;2022-10-16T05:00:34;19.10;;;9.02;;
72209;SDS011;60113;48.762;12.302;2022-10-16T05:03:00;17.98;;;8.85;;
72209;SDS011;60113;48.762;12.302;2022-10-16T05:05:26;16.05;;;7.60;;
72209;SDS011;60113;48.762;12.302;2022-10-16T05:07:52;11.20;;;7.15;;
72209;SDS011;60113;48.762;12.302;2022-10-16T05:10:17;12.98;;;6.70;;
72209;SDS011;60113;48.762;12.302;2022-10-16T05:12:43;11.57;;;6.20;;
72209;SDS011;60113;48.762;12.302;2022-10-16T05:15:09;9.90;;;5.95;;
72209;SDS011;60113;48.762;12.302;2022-10-16T05:17:35;13.65;;;6.10;;
72209;SDS011;60113;48.762;12.302;2022-10-16T05:20:00;11.18;;;5.68;;
72209;SDS011;60113;48.762;12.302;2022-10-16T05:22:27;15.48;;;5.95;;
72209;SDS011;60113;48.762;12.302;2022-10-16T05:24:52;60.78;;;35.78;;
72209;SDS011;60113;48.762;12.302;2022-10-16T05:27:18;12.63;;;8.40;;
72209;SDS011;60113;48.762;12.302;2022-10-16T05:29:47;14.80;;;7.32;;
72209;SDS011;60113;48.762;12.302;2022-10-16T05:32:17;13.63;;;7.07;;
72209;SDS011;60113;48.762;12.302;2022-10-16T05:34:43;14.50;;;10.93;;
72209;SDS011;60113;48.762;12.302;2022-10-16T05:37:10;12.60;;;7.95;;
72209;SDS011;60113;48.762;12.302;2022-10-16T05:39:37;17.05;;;7.20;;
72209;SDS011;60113;48.762;12.302;2022-10-16T05:42:03;13.50;;;6.90;;
72209;SDS011;60113;48.762;12.302;2022-10-16T05:44:30;14.95;;;6.50;;
72209;SDS011;60113;48.762;12.302;2022-10-16T05:46:55;12.70;;;7.28;;
72209;SDS011;60113;48.762;12.302;2022-10-16T05:49:21;16.35;;;7.80;;
72209;SDS011;60113;48.762;12.302;2022-10-16T05:51:46;16.05;;;8.00;;
72209;SDS011;60113;48.762;12.302;2022-10-16T05:54:12;19.65;;;10.93;;
72209;SDS011;60113;48.762;12.302;2022-10-16T05:56:38;14.32;;;8.02;;
72209;SDS011;60113;48.762;12.302;2022-10-16T05:59:03;15.63;;;7.35;;
72209;SDS011;60113;48.762;12.302;2022-10-16T06:01:31;10.52;;;6.90;;
72209;SDS011;60113;48.762;12.302;2022-10-16T06:03:57;17.50;;;6.80;;
72209;SDS011;60113;48.762;12.302;2022-10-16T06:06:23;16.05;;;6.55;;
72209;SDS011;60113;48.762;12.302;2022-10-16T06:08:51;11.20;;;6.00;;
72209;SDS011;60113;48.762;12.302;2022-10-16T06:11:19;11.27;;;6.13;;
72209;SDS011;60113;48.762;12.302;2022-10-16T06:13:53;15.07;;;6.40;;
72209;SDS011;60113;48.762;12.302;2022-10-16T06:16:22;35.10;;;19.08;;
72209;SDS011;60113;48.762;12.302;2022-10-16T06:18:48;28.35;;;17.30;;
72209;SDS011;60113;48.762;12.302;2022-10-16T06:21:16;32.92;;;17.42;;
72209;SDS011;60113;48.762;12.302;2022-10-16T06:23:43;21.77;;;16.98;;
72209;SDS011;60113;48.762;12.302;2022-10-16T06:26:14;25.17;;;16.10;;
72209;SDS011;60113;48.762;12.302;2022-10-16T06:28:41;31.30;;;16.08;;
72209;SDS011;60113;48.762;12.302;2022-10-16T06:31:07;26.98;;;15.85;;
72209;SDS011;60113;48.762;12.302;2022-10-16T06:33:34;19.02;;;13.38;;
72209;SDS011;60113;48.762;12.302;2022-10-16T06:36:18;25.23;;;12.75;;
72209;SDS011;60113;48.762;12.302;2022-10-16T06:38:45;21.98;;;13.32;;
72209;SDS011;60113;48.762;12.302;2022-10-16T06:41:12;19.17;;;11.40;;
72209;SDS011;60113;48.762;12.302;2022-10-16T06:43:40;24.77;;;13.13;;
72209;SDS011;60113;48.762;12.302;2022-10-16T06:46:07;26.77;;;13.13;;
72209;SDS011;60113;48.762;12.302;2022-10-16T06:48:35;17.98;;;12.52;;
72209;SDS011;60113;48.762;12.302;2022-10-16T06:51:02;8.98;;;5.32;;
72209;SDS011;60113;48.762;12.302;2022-10-16T06:53:34;10.02;;;6.10;;
72209;SDS011;60113;48.762;12.302;2022-10-16T06:58:38;15.45;;;5.90;;
72209;SDS011;60113;48.762;12.302;2022-10-16T07:01:05;10.65;;;5.60;;
72209;SDS011;60113;48.762;12.302;2022-10-16T07:03:31;12.55;;;5.90;;
72209;SDS011;60113;48.762;12.302;2022-10-16T07:05:56;9.95;;;5.70;;
72209;SDS011;60113;48.762;12.302;2022-10-16T07:08:22;12.23;;;6.22;;
72209;SDS011;60113;48.762;12.302;2022-10-16T07:10:49;12.68;;;6.32;;
72209;SDS011;60113;48.762;12.302;2022-10-16T07:13:23;14.60;;;6.28;;
72209;SDS011;60113;48.762;12.302;2022-10-16T07:15:49;10.57;;;4.80;;
72209;SDS011;60113;48.762;12.302;2022-10-16T07:18:14;12.35;;;5.40;;
72209;SDS011;60113;48.762;12.302;2022-10-16T07:20:40;10.85;;;4.65;;
72209;SDS011;60113;48.762;12.302;2022-10-16T07:23:06;11.38;;;4.90;;
72209;SDS011;60113;48.762;12.302;2022-10-16T07:25:31;5.65;;;4.57;;
72209;SDS011;60113;48.762;12.302;2022-10-16T07:27:57;9.20;;;4.45;;
72209;SDS011;60113;48.762;12.302;2022-10-16T07:30:23;14.75;;;3.75;;
72209;SDS011;60113;48.762;12.302;2022-10-16T07:32:48;6.28;;;2.50;;
72209;SDS011;60113;48.762;12.302;2022-10-16T07:35:14;4.05;;;2.05;;
72209;SDS011;60113;48.762;12.302;2022-10-16T07:37:39;5.22;;;2.72;;
72209;SDS011;60113;48.762;12.302;2022-10-16T07:40:09;6.25;;;1.98;;
72209;SDS011;60113;48.762;12.302;2022-10-16T07:42:35;3.42;;;2.20;;
72209;SDS011;60113;48.762;12.302;2022-10-16T07:45:01;6.18;;;1.90;;
72209;SDS011;60113;48.762;12.302;2022-10-16T07:47:26;3.15;;;1.90;;
72209;SDS011;60113;48.762;12.302;2022-10-16T07:49:52;7.72;;;2.20;;
72209;SDS011;60113;48.762;12.302;2022-10-16T07:52:17;9.02;;;1.80;;
72209;SDS011;60113;48.762;12.302;2022-10-16T07:54:43;7.82;;;2.03;;
72209;SDS011;60113;48.762;12.302;2022-10-16T07:57:08;7.40;;;1.95;;
72209;SDS011;60113;48.762;12.302;2022-10-16T07:59:34;6.38;;;1.90;;
72209;SDS011;60113;48.762;12.302;2022-10-16T08:01:59;2.42;;;1.60;;
72209;SDS011;60113;48.762;12.302;2022-10-16T08:04:25;6.78;;;1.80;;
72209;SDS011;60113;48.762;12.302;2022-10-16T08:06:50;7.20;;;1.92;;
72209;SDS011;60113;48.762;12.302;2022-10-16T08:09:17;5.70;;;1.80;;
72209;SDS011;60113;48.762;12.302;2022-10-16T08:11:43;3.00;;;1.80;;
72209;SDS011;60113;48.762;12.302;2022-10-16T08:14:08;6.35;;;1.88;;
72209;SDS011;60113;48.762;12.302;2022-10-16T08:16:34;4.22;;;1.70;;
72209;SDS011;60113;48.762;12.302;2022-10-16T08:18:59;3.08;;;1.55;;
72209;SDS011;60113;48.762;12.302;2022-10-16T08:21:25;5.07;;;1.50;;
72209;SDS011;60113;48.762;12.302;2022-10-16T08:23:51;2.65;;;1.60;;
72209;SDS011;60113;48.762;12.302;2022-10-16T08:26:18;7.75;;;1.75;;
72209;SDS011;60113;48.762;12.302;2022-10-16T08:28:44;2.30;;;1.63;;
72209;SDS011;60113;48.762;12.302;2022-10-16T08:33:40;5.03;;;1.52;;
72209;SDS011;60113;48.762;12.302;2022-10-16T08:36:08;8.73;;;2.10;;
72209;SDS011;60113;48.762;12.302;2022-10-16T08:38:35;4.03;;;1.75;;
72209;SDS011;60113;48.762;12.302;2022-10-16T08:44:03;3.72;;;1.52;;
72209;SDS011;60113;48.762;12.302;2022-10-16T08:49:10;10.80;;;2.03;;
72209;SDS011;60113;48.762;12.302;2022-10-16T08:51:41;3.70;;;1.75;;
72209;SDS011;60113;48.762;12.302;2022-10-16T08:54:15;3.92;;;1.55;;
72209;SDS011;60113;48.762;12.302;2022-10-16T08:59:16;1.92;;;1.25;;
72209;SDS011;60113;48.762;12.302;2022-10-16T09:01:44;7.78;;;1.63;;
72209;SDS011;60113;48.762;12.302;2022-10-16T09:07:21;4.45;;;1.88;;
72209;SDS011;60113;48.762;12.302;2022-10-16T09:09:56;5.45;;;1.40;;
72209;SDS011;60113;48.762;12.302;2022-10-16T09:13:26;6.90;;;1.40;;
72209;SDS011;60113;48.762;12.302;2022-10-16T09:15:55;4.53;;;1.60;;
72209;SDS011;60113;48.762;12.302;2022-10-16T09:18:35;4.75;;;1.60;;
72209;SDS011;60113;48.762;12.302;2022-10-16T09:23:52;5.78;;;1.80;;
72209;SDS011;60113;48.762;12.302;2022-10-16T09:26:22;4.57;;;1.40;;
72209;SDS011;60113;48.762;12.302;2022-10-16T09:28:51;4.75;;;1.70;;
72209;SDS011;60113;48.762;12.302;2022-10-16T09:31:19;4.43;;;1.50;;
72209;SDS011;60113;48.762;12.302;2022-10-16T09:33:48;8.02;;;1.98;;
72209;SDS011;60113;48.762;12.302;2022-10-16T09:36:20;2.42;;;1.40;;
72209;SDS011;60113;48.762;12.302;2022-10-16T09:38:48;3.47;;;1.33;;
72209;SDS011;60113;48.762;12.302;2022-10-16T09:41:21;3.33;;;1.50;;
72209;SDS011;60113;48.762;12.302;2022-10-16T09:43:49;1.90;;;1.45;;
72209;SDS011;60113;48.762;12.302;2022-10-16T09:48:58;2.17;;;1.30;;
72209;SDS011;60113;48.762;12.302;2022-10-16T09:51:26;5.45;;;1.70;;
72209;SDS011;60113;48.762;12.302;2022-10-16T09:53:55;4.45;;;1.85;;
72209;SDS011;60113;48.762;12.302;2022-10-16T09:56:27;2.40;;;1.70;;
72209;SDS011;60113;48.762;12.302;2022-10-16T10:01:49;2.85;;;1.60;;
72209;SDS011;60113;48.762;12.302;2022-10-16T10:04:20;3.08;;;1.30;;
72209;SDS011;60113;48.762;12.302;2022-10-16T10:06:48;4.72;;;1.70;;
72209;SDS011;60113;48.762;12.302;2022-10-16T10:12:03;5.82;;;1.75;;
72209;SDS011;60113;48.762;12.302;2022-10-16T10:14:32;6.05;;;1.92;;
72209;SDS011;60113;48.762;12.302;2022-10-16T10:22:13;7.13;;;1.60;;
72209;SDS011;60113;48.762;12.302;2022-10-16T10:25:00;3.60;;;1.48;;
72209;SDS011;60113;48.762;12.302;2022-10-16T10:36:27;4.50;;;1.40;;
72209;SDS011;60113;48.762;12.302;2022-10-16T10:39:15;2.75;;;1.60;;
72209;SDS011;60113;48.762;12.302;2022-10-16T10:50:21;5.18;;;1.20;;
72209;SDS011;60113;48.762;12.302;2022-10-16T11:00:51;3.92;;;1.30;;
72209;SDS011;60113;48.762;12.302;2022-10-16T11:06:28;4.88;;;1.30;;
72209;SDS011;60113;48.762;12.302;2022-10-16T11:09:12;5.05;;;1.38;;
72209;SDS011;60113;48.762;12.302;2022-10-16T11:11:50;4.95;;;1.30;;
72209;SDS011;60113;48.762;12.302;2022-10-16T11:14:22;3.53;;;1.30;;
72209;SDS011;60113;48.762;12.302;2022-10-16T11:17:01;4.65;;;1.60;;
72209;SDS011;60113;48.762;12.302;2022-10-16T11:22:23;9.20;;;1.30;;
72209;SDS011;60113;48.762;12.302;2022-10-16T11:24:53;2.65;;;1.20;;
72209;SDS011;60113;48.762;12.302;2022-10-16T11:27:35;4.13;;;1.23;;
72209;SDS011;60113;48.762;12.302;2022-10-16T11:30:06;3.58;;;1.40;;
72209;SDS011;60113;48.762;12.302;2022-10-16T11:38:30;2.60;;;1.13;;
72209;SDS011;60113;48.762;12.302;2022-10-16T11:41:13;3.92;;;1.88;;
72209;SDS011;60113;48.762;12.302;2022-10-16T11:43:48;2.88;;;1.40;;
72209;SDS011;60113;48.762;12.302;2022-10-16T11:46:28;6.53;;;1.90;;
72209;SDS011;60113;48.762;12.302;2022-10-16T11:49:00;5.75;;;1.05;;
72209;SDS011;60113;48.762;12.302;2022-10-16T11:51:35;9.15;;;1.75;;
72209;SDS011;60113;48.762;12.302;2022-10-16T11:56:48;2.45;;;1.20;;
72209;SDS011;60113;48.762;12.302;2022-10-16T12:04:49;8.27;;;5.20;;
72209;SDS011;60113;48.762;12.302;2022-10-16T12:07:27;5.43;;;2.10;;
72209;SDS011;60113;48.762;12.302;2022-10-16T12:10:21;4.95;;;1.20;;
72209;SDS011;60113;48.762;12.302;2022-10-16T12:12:48;3.80;;;1.30;;
72209;SDS011;60113;48.762;12.302;2022-10-16T12:15:22;3.88;;;1.20;;
72209;SDS011;60113;48.762;12.302;2022-10-16T12:17:52;6.20;;;1.23;;
72209;SDS011;60113;48.762;12.302;2022-10-16T12:20:20;3.20;;;1.50;;
72209;SDS011;60113;48.762;12.302;2022-10-16T12:23:01;5.88;;;1.50;;
72209;SDS011;60113;48.762;12.302;2022-10-16T12:25:30;3.08;;;1.45;;
72209;SDS011;60113;48.762;12.302;2022-10-16T12:27:59;1.95;;;1.30;;
72209;SDS011;60113;48.762;12.302;2022-10-16T12:32:58;2.10;;;1.40;;
72209;SDS011;60113;48.762;12.302;2022-10-16T12:35:28;4.32;;;1.58;;
72209;SDS011;60113;48.762;12.302;2022-10-16T12:41:03;4.47;;;1.48;;
72209;SDS011;60113;48.762;12.302;2022-10-16T12:43:37;2.58;;;1.33;;
72209;SDS011;60113;48.762;12.302;2022-10-16T12:48:33;4.30;;;1.85;;
72209;SDS011;60113;48.762;12.302;2022-10-16T12:51:09;3.78;;;1.50;;
72209;SDS011;60113;48.762;12.302;2022-10-16T12:59:25;3.40;;;1.35;;
72209;SDS011;60113;48.762;12.302;2022-10-16T13:19:14;3.10;;;1.50;;
72209;SDS011;60113;48.762;12.302;2022-10-16T13:27:13;2.30;;;1.50;;
72209;SDS011;60113;48.762;12.302;2022-10-16T13:30:19;2.08;;;1.30;;
72209;SDS011;60113;48.762;12.302;2022-10-16T13:32:58;1.85;;;1.27;;
72209;SDS011;60113;48.762;12.302;2022-10-16T13:35:27;5.15;;;1.40;;
72209;SDS011;60113;48.762;12.302;2022-10-16T13:38:04;3.75;;;1.30;;
72209;SDS011;60113;48.762;12.302;2022-10-16T13:40:30;5.43;;;1.38;;
72209;SDS011;60113;48.762;12.302;2022-10-16T13:42:56;2.42;;;1.40;;
72209;SDS011;60113;48.762;12.302;2022-10-16T13:45:25;4.82;;;1.60;;
72209;SDS011;60113;48.762;12.302;2022-10-16T13:48:03;4.35;;;1.60;;
72209;SDS011;60113;48.762;12.302;2022-10-16T13:50:30;4.75;;;1.67;;
72209;SDS011;60113;48.762;12.302;2022-10-16T13:53:03;2.97;;;1.58;;
72209;SDS011;60113;48.762;12.302;2022-10-16T13:55:29;3.20;;;1.63;;
72209;SDS011;60113;48.762;12.302;2022-10-16T13:58:11;3.50;;;1.65;;
72209;SDS011;60113;48.762;12.302;2022-10-16T14:00:39;2.70;;;1.55;;
72209;SDS011;60113;48.762;12.302;2022-10-16T14:03:15;9.13;;;1.58;;
72209;SDS011;60113;48.762;12.302;2022-10-16T14:05:52;3.08;;;1.60;;
72209;SDS011;60113;48.762;12.302;2022-10-16T14:08:20;2.90;;;1.65;;
72209;SDS011;60113;48.762;12.302;2022-10-16T14:10:50;5.63;;;1.95;;
72209;SDS011;60113;48.762;12.302;2022-10-16T14:13:19;3.10;;;1.83;;
72209;SDS011;60113;48.762;12.302;2022-10-16T14:15:51;3.60;;;1.67;;
72209;SDS011;60113;48.762;12.302;2022-10-16T14:18:23;2.72;;;1.45;;
72209;SDS011;60113;48.762;12.302;2022-10-16T14:23:21;5.10;;;1.58;;
72209;SDS011;60113;48.762;12.302;2022-10-16T14:28:33;2.85;;;1.48;;
72209;SDS011;60113;48.762;12.302;2022-10-16T14:31:00;4.97;;;1.45;;
72209;SDS011;60113;48.762;12.302;2022-10-16T14:38:39;2.30;;;1.40;;
72209;SDS011;60113;48.762;12.302;2022-10-16T14:41:07;4.72;;;1.50;;
72209;SDS011;60113;48.762;12.302;2022-10-16T14:43:35;8.93;;;1.63;;
72209;SDS011;60113;48.762;12.302;2022-10-16T14:46:03;4.75;;;1.80;;
72209;SDS011;60113;48.762;12.302;2022-10-16T14:48:47;6.03;;;1.40;;
72209;SDS011;60113;48.762;12.302;2022-10-16T14:51:19;2.60;;;1.50;;
72209;SDS011;60113;48.762;12.302;2022-10-16T14:53:45;8.20;;;1.60;;
72209;SDS011;60113;48.762;12.302;2022-10-16T14:56:15;6.80;;;1.80;;
72209;SDS011;60113;48.762;12.302;2022-10-16T14:58:44;7.78;;;1.70;;
72209;SDS011;60113;48.762;12.302;2022-10-16T15:01:10;13.23;;;1.75;;
72209;SDS011;60113;48.762;12.302;2022-10-16T15:03:36;7.70;;;1.98;;
72209;SDS011;60113;48.762;12.302;2022-10-16T15:06:03;7.95;;;1.63;;
72209;SDS011;60113;48.762;12.302;2022-10-16T15:08:28;2.65;;;1.58;;
72209;SDS011;60113;48.762;12.302;2022-10-16T15:10:54;1.20;;;1.10;;
72209;SDS011;60113;48.762;12.302;2022-10-16T15:13:20;4.35;;;1.35;;
72209;SDS011;60113;48.762;12.302;2022-10-16T15:15:46;4.70;;;1.63;;
72209;SDS011;60113;48.762;12.302;2022-10-16T15:18:14;3.85;;;1.50;;
72209;SDS011;60113;48.762;12.302;2022-10-16T15:20:45;3.65;;;1.40;;
72209;SDS011;60113;48.762;12.302;2022-10-16T15:23:13;14.05;;;1.50;;
72209;SDS011;60113;48.762;12.302;2022-10-16T15:28:17;11.95;;;2.10;;
72209;SDS011;60113;48.762;12.302;2022-10-16T15:30:43;9.00;;;1.80;;
72209;SDS011;60113;48.762;12.302;2022-10-16T15:33:14;14.35;;;1.88;;
72209;SDS011;60113;48.762;12.302;2022-10-16T15:35:47;12.45;;;1.88;;
72209;SDS011;60113;48.762;12.302;2022-10-16T15:38:17;7.82;;;1.77;;
72209;SDS011;60113;48.762;12.302;2022-10-16T15:40:44;10.88;;;2.03;;
72209;SDS011;60113;48.762;12.302;2022-10-16T15:43:11;12.25;;;1.83;;
72209;SDS011;60113;48.762;12.302;2022-10-16T15:45:36;4.13;;;1.55;;
72209;SDS011;60113;48.762;12.302;2022-10-16T15:48:02;10.63;;;1.90;;
72209;SDS011;60113;48.762;12.302;2022-10-16T15:50:28;13.98;;;2.10;;
72209;SDS011;60113;48.762;12.302;2022-10-16T15:52:55;16.00;;;2.03;;
72209;SDS011;60113;48.762;12.302;2022-10-16T15:55:22;4.88;;;2.05;;
72209;SDS011;60113;48.762;12.302;2022-10-16T15:57:47;7.55;;;1.90;;
72209;SDS011;60113;48.762;12.302;2022-10-16T16:00:14;3.40;;;1.58;;
72209;SDS011;60113;48.762;12.302;2022-10-16T16:02:43;15.57;;;1.70;;
72209;SDS011;60113;48.762;12.302;2022-10-16T16:05:14;11.13;;;1.80;;
72209;SDS011;60113;48.762;12.302;2022-10-16T16:07:40;5.97;;;1.90;;
72209;SDS011;60113;48.762;12.302;2022-10-16T16:10:06;10.02;;;1.92;;
72209;SDS011;60113;48.762;12.302;2022-10-16T16:12:33;8.57;;;2.40;;
72209;SDS011;60113;48.762;12.302;2022-10-16T16:14:59;9.63;;;2.30;;
72209;SDS011;60113;48.762;12.302;2022-10-16T16:17:24;7.25;;;2.38;;
72209;SDS011;60113;48.762;12.302;2022-10-16T16:19:50;6.28;;;2.25;;
72209;SDS011;60113;48.762;12.302;2022-10-16T16:22:16;9.55;;;2.35;;
72209;SDS011;60113;48.762;12.302;2022-10-16T16:24:42;10.55;;;2.30;;
72209;SDS011;60113;48.762;12.302;2022-10-16T16:27:08;4.60;;;2.25;;
72209;SDS011;60113;48.762;12.302;2022-10-16T16:29:33;7.88;;;2.72;;
72209;SDS011;60113;48.762;12.302;2022-10-16T16:31:59;4.80;;;2.67;;
72209;SDS011;60113;48.762;12.302;2022-10-16T16:34:26;13.88;;;2.88;;
72209;SDS011;60113;48.762;12.302;2022-10-16T16:36:53;23.58;;;3.55;;
72209;SDS011;60113;48.762;12.302;2022-10-16T16:39:19;12.98;;;3.13;;
72209;SDS011;60113;48.762;12.302;2022-10-16T16:41:45;7.88;;;3.55;;
72209;SDS011;60113;48.762;12.302;2022-10-16T16:44:13;8.43;;;3.53;;
72209;SDS011;60113;48.762;12.302;2022-10-16T16:46:40;6.95;;;3.47;;
72209;SDS011;60113;48.762;12.302;2022-10-16T16:49:09;10.30;;;3.60;;
72209;SDS011;60113;48.762;12.302;2022-10-16T16:51:38;6.75;;;4.03;;
72209;SDS011;60113;48.762;12.302;2022-10-16T16:54:04;11.32;;;3.97;;
72209;SDS011;60113;48.762;12.302;2022-10-16T16:56:32;6.88;;;4.38;;
72209;SDS011;60113;48.762;12.302;2022-10-16T16:58:57;15.90;;;5.03;;
72209;SDS011;60113;48.762;12.302;2022-10-16T17:01:23;18.83;;;5.20;;
72209;SDS011;60113;48.762;12.302;2022-10-16T17:03:51;11.45;;;4.78;;